Indianapolis, Indiana
Traffic Map
Current Weather Conditions
Indianapolis, Indiana
Scattered Clouds
Scattered Clouds
75°
Feels Like: 75°
Wind Chill: 75° Ceiling: Unl
Heat Index: 75° Visibility: 10mi
Dew Point: 50° Wind: 9mph
Humidity: 41% Direction: 20° (NNE)
Pressure: 30.04in Gusts: 0mph
Raw Report DataKIND 242254Z 02008KT 10SM SCT055 24/10 A3004 RMK AO2 SLP168 T02390100
Traffic Incident Summary
Active as of:
Severity:
Category:
InformationThere was an issue retrieving the traffic information for this location. Please try a different location or try again shortly.
Advertisements
Track Severe Weather on mobile